Terminal Aerodrome Forecast
Issued by NWS El Paso, TX

Home | Current Version | Previous Version | Text Only | Print | Product List | Glossary On
Versions: 1 2 3 4 5 6 7 8 9 10 11 12 13 14 15 16 17 18
000
FTUS44 KEPZ 172022 AAA
TAFELP
TAF AMD
KELP 172022Z 1720/1818 06008KT P6SM -SHRA VCTS SCT030 BKN050CB
      BKN110
      TEMPO 1720/1724 VRB15G25KT 6SM -TSRA BKN030CB BKN060
     FM180200 13006KT P6SM SCT050 BKN110
     FM181700 24007KT P6SM SCT040 SCT100=

USA.gov is the U.S. government's official web portal to all federal, state and local government web resources and services.